sensor_id;sensor_type;location;lat;lon;timestamp;temperature;humidity
463;DHT22;218;51.902;9.542;2023-02-28T00:00:09;4.80;1.00
463;DHT22;218;51.902;9.542;2023-02-28T00:02:39;4.30;1.00
463;DHT22;218;51.902;9.542;2023-02-28T00:05:08;4.40;1.00
463;DHT22;218;51.902;9.542;2023-02-28T00:07:35;4.30;1.00
463;DHT22;218;51.902;9.542;2023-02-28T00:10:04;4.40;1.00
463;DHT22;218;51.902;9.542;2023-02-28T00:12:32;4.30;1.00
463;DHT22;218;51.902;9.542;2023-02-28T00:14:59;4.30;1.00
463;DHT22;218;51.902;9.542;2023-02-28T00:17:26;7.00;1.00
463;DHT22;218;51.902;9.542;2023-02-28T00:19:54;4.50;1.00
463;DHT22;218;51.902;9.542;2023-02-28T00:22:21;4.20;1.00
463;DHT22;218;51.902;9.542;2023-02-28T00:24:48;4.20;1.00
463;DHT22;218;51.902;9.542;2023-02-28T00:27:15;4.30;1.00
463;DHT22;218;51.902;9.542;2023-02-28T00:29:42;5.50;1.00
463;DHT22;218;51.902;9.542;2023-02-28T00:32:08;5.50;1.00
463;DHT22;218;51.902;9.542;2023-02-28T00:34:35;4.20;1.00
463;DHT22;218;51.902;9.542;2023-02-28T00:37:04;4.20;1.00
463;DHT22;218;51.902;9.542;2023-02-28T00:39:33;4.20;1.00
463;DHT22;218;51.902;9.542;2023-02-28T00:42:01;4.20;1.00
463;DHT22;218;51.902;9.542;2023-02-28T00:44:28;3.90;1.00
463;DHT22;218;51.902;9.542;2023-02-28T00:46:55;4.10;1.00
463;DHT22;218;51.902;9.542;2023-02-28T00:49:23;4.10;1.00
463;DHT22;218;51.902;9.542;2023-02-28T00:51:50;4.90;1.00
463;DHT22;218;51.902;9.542;2023-02-28T00:54:19;4.10;1.00
463;DHT22;218;51.902;9.542;2023-02-28T00:56:46;4.10;1.00
463;DHT22;218;51.902;9.542;2023-02-28T00:59:13;4.10;1.00
463;DHT22;218;51.902;9.542;2023-02-28T01:01:40;4.00;1.00
463;DHT22;218;51.902;9.542;2023-02-28T01:04:07;5.10;1.00
463;DHT22;218;51.902;9.542;2023-02-28T01:06:34;4.10;1.00
463;DHT22;218;51.902;9.542;2023-02-28T01:09:02;4.10;1.00
463;DHT22;218;51.902;9.542;2023-02-28T01:11:31;4.10;1.00
463;DHT22;218;51.902;9.542;2023-02-28T01:13:59;4.40;1.00
463;DHT22;218;51.902;9.542;2023-02-28T01:16:26;5.10;1.00
463;DHT22;218;51.902;9.542;2023-02-28T01:18:54;3.00;1.00
463;DHT22;218;51.902;9.542;2023-02-28T01:21:21;4.10;1.00
463;DHT22;218;51.902;9.542;2023-02-28T01:23:49;5.50;1.00
463;DHT22;218;51.902;9.542;2023-02-28T01:26:18;4.10;1.00
463;DHT22;218;51.902;9.542;2023-02-28T01:28:46;5.40;1.00
463;DHT22;218;51.902;9.542;2023-02-28T01:31:14;4.00;1.00
463;DHT22;218;51.902;9.542;2023-02-28T01:33:41;3.90;1.00
463;DHT22;218;51.902;9.542;2023-02-28T01:36:11;4.80;1.00
463;DHT22;218;51.902;9.542;2023-02-28T01:38:38;5.70;1.00
463;DHT22;218;51.902;9.542;2023-02-28T01:41:05;4.20;1.00
463;DHT22;218;51.902;9.542;2023-02-28T01:43:57;3.80;1.00
463;DHT22;218;51.902;9.542;2023-02-28T01:46:25;3.80;1.00
463;DHT22;218;51.902;9.542;2023-02-28T01:48:56;3.80;1.00
463;DHT22;218;51.902;9.542;2023-02-28T01:51:29;4.00;1.00
463;DHT22;218;51.902;9.542;2023-02-28T01:54:00;4.40;1.00
463;DHT22;218;51.902;9.542;2023-02-28T01:56:32;5.00;1.00
463;DHT22;218;51.902;9.542;2023-02-28T01:59:02;4.70;1.00
463;DHT22;218;51.902;9.542;2023-02-28T02:01:30;3.70;1.00
463;DHT22;218;51.902;9.542;2023-02-28T02:04:00;3.60;1.00
463;DHT22;218;51.902;9.542;2023-02-28T02:06:29;3.50;1.00
463;DHT22;218;51.902;9.542;2023-02-28T02:08:56;3.50;1.00
463;DHT22;218;51.902;9.542;2023-02-28T02:11:24;3.50;1.00
463;DHT22;218;51.902;9.542;2023-02-28T02:14:17;3.50;1.00
463;DHT22;218;51.902;9.542;2023-02-28T02:16:57;4.10;1.00
463;DHT22;218;51.902;9.542;2023-02-28T02:20:02;4.30;1.00
463;DHT22;218;51.902;9.542;2023-02-28T02:22:58;3.30;1.00
463;DHT22;218;51.902;9.542;2023-02-28T02:25:32;3.20;1.00
463;DHT22;218;51.902;9.542;2023-02-28T02:28:36;3.20;1.00
463;DHT22;218;51.902;9.542;2023-02-28T02:31:34;3.20;1.00
463;DHT22;218;51.902;9.542;2023-02-28T02:34:36;3.10;1.00
463;DHT22;218;51.902;9.542;2023-02-28T02:37:13;3.10;1.00
463;DHT22;218;51.902;9.542;2023-02-28T02:39:48;3.10;1.00
463;DHT22;218;51.902;9.542;2023-02-28T02:42:20;3.10;1.00
463;DHT22;218;51.902;9.542;2023-02-28T02:44:52;3.10;1.00
463;DHT22;218;51.902;9.542;2023-02-28T02:47:23;3.00;1.00
463;DHT22;218;51.902;9.542;2023-02-28T02:49:55;4.00;1.00
463;DHT22;218;51.902;9.542;2023-02-28T02:52:31;3.00;1.00
463;DHT22;218;51.902;9.542;2023-02-28T02:55:02;4.00;1.00
463;DHT22;218;51.902;9.542;2023-02-28T02:57:32;3.00;1.00
463;DHT22;218;51.902;9.542;2023-02-28T03:00:03;3.00;1.00
463;DHT22;218;51.902;9.542;2023-02-28T03:02:34;2.90;1.00
463;DHT22;218;51.902;9.542;2023-02-28T03:05:07;3.80;1.00
463;DHT22;218;51.902;9.542;2023-02-28T03:07:34;2.80;1.00
463;DHT22;218;51.902;9.542;2023-02-28T03:10:01;2.80;1.00
463;DHT22;218;51.902;9.542;2023-02-28T03:12:38;2.80;1.00
463;DHT22;218;51.902;9.542;2023-02-28T03:15:13;2.80;1.00
463;DHT22;218;51.902;9.542;2023-02-28T03:18:00;2.80;1.00
463;DHT22;218;51.902;9.542;2023-02-28T03:20:37;2.80;1.00
463;DHT22;218;51.902;9.542;2023-02-28T03:23:12;2.80;1.00
463;DHT22;218;51.902;9.542;2023-02-28T03:25:52;2.80;1.00
463;DHT22;218;51.902;9.542;2023-02-28T03:28:27;2.80;1.00
463;DHT22;218;51.902;9.542;2023-02-28T03:31:00;2.80;1.00
463;DHT22;218;51.902;9.542;2023-02-28T03:33:32;5.10;1.00
463;DHT22;218;51.902;9.542;2023-02-28T03:36:06;4.30;1.00
463;DHT22;218;51.902;9.542;2023-02-28T03:38:38;2.90;1.00
463;DHT22;218;51.902;9.542;2023-02-28T03:41:11;2.90;1.00
463;DHT22;218;51.902;9.542;2023-02-28T03:43:44;2.90;1.00
463;DHT22;218;51.902;9.542;2023-02-28T03:46:16;2.90;1.00
463;DHT22;218;51.902;9.542;2023-02-28T03:48:51;2.90;1.00
463;DHT22;218;51.902;9.542;2023-02-28T03:51:22;2.90;1.00
463;DHT22;218;51.902;9.542;2023-02-28T03:53:53;3.00;1.00
463;DHT22;218;51.902;9.542;2023-02-28T03:56:23;4.50;1.00
463;DHT22;218;51.902;9.542;2023-02-28T03:58:57;3.00;1.00
463;DHT22;218;51.902;9.542;2023-02-28T04:01:28;3.70;1.00
463;DHT22;218;51.902;9.542;2023-02-28T04:03:57;3.00;1.00
463;DHT22;218;51.902;9.542;2023-02-28T04:06:25;3.00;1.00
463;DHT22;218;51.902;9.542;2023-02-28T04:08:52;3.00;1.00
463;DHT22;218;51.902;9.542;2023-02-28T04:11:23;3.40;1.00
463;DHT22;218;51.902;9.542;2023-02-28T04:13:50;3.10;1.00
463;DHT22;218;51.902;9.542;2023-02-28T04:16:17;3.10;1.00
463;DHT22;218;51.902;9.542;2023-02-28T04:18:44;3.10;1.00
463;DHT22;218;51.902;9.542;2023-02-28T04:21:11;3.90;1.00
463;DHT22;218;51.902;9.542;2023-02-28T04:23:39;3.10;1.00
463;DHT22;218;51.902;9.542;2023-02-28T04:26:07;3.10;1.00
463;DHT22;218;51.902;9.542;2023-02-28T04:28:33;3.50;1.00
463;DHT22;218;51.902;9.542;2023-02-28T04:31:03;3.10;1.00
463;DHT22;218;51.902;9.542;2023-02-28T04:33:31;3.20;1.00
463;DHT22;218;51.902;9.542;2023-02-28T04:35:59;3.20;1.00
463;DHT22;218;51.902;9.542;2023-02-28T04:38:28;3.20;1.00
463;DHT22;218;51.902;9.542;2023-02-28T04:40:58;4.20;1.00
463;DHT22;218;51.902;9.542;2023-02-28T04:43:26;3.20;1.00
463;DHT22;218;51.902;9.542;2023-02-28T04:45:53;5.10;1.00
463;DHT22;218;51.902;9.542;2023-02-28T04:48:22;3.80;1.00
463;DHT22;218;51.902;9.542;2023-02-28T04:50:49;4.70;1.00
463;DHT22;218;51.902;9.542;2023-02-28T04:53:16;3.30;1.00
463;DHT22;218;51.902;9.542;2023-02-28T04:55:43;4.80;1.00
463;DHT22;218;51.902;9.542;2023-02-28T04:58:12;4.30;1.00
463;DHT22;218;51.902;9.542;2023-02-28T05:00:39;3.30;1.00
463;DHT22;218;51.902;9.542;2023-02-28T05:03:06;4.00;1.00
463;DHT22;218;51.902;9.542;2023-02-28T05:05:33;5.00;1.00
463;DHT22;218;51.902;9.542;2023-02-28T05:08:00;3.30;1.00
463;DHT22;218;51.902;9.542;2023-02-28T05:10:27;3.30;1.00
463;DHT22;218;51.902;9.542;2023-02-28T05:12:54;5.20;1.00
463;DHT22;218;51.902;9.542;2023-02-28T05:15:23;3.70;1.00
463;DHT22;218;51.902;9.542;2023-02-28T05:17:50;3.20;1.00
463;DHT22;218;51.902;9.542;2023-02-28T05:20:17;5.00;1.00
463;DHT22;218;51.902;9.542;2023-02-28T05:22:44;3.10;1.00
463;DHT22;218;51.902;9.542;2023-02-28T05:25:13;5.10;1.00
463;DHT22;218;51.902;9.542;2023-02-28T05:27:41;3.00;1.00
463;DHT22;218;51.902;9.542;2023-02-28T05:30:09;3.00;1.00
463;DHT22;218;51.902;9.542;2023-02-28T05:32:38;2.90;1.00
463;DHT22;218;51.902;9.542;2023-02-28T05:35:09;3.60;1.00
463;DHT22;218;51.902;9.542;2023-02-28T05:37:36;2.80;1.00
463;DHT22;218;51.902;9.542;2023-02-28T05:40:04;2.80;1.00
463;DHT22;218;51.902;9.542;2023-02-28T05:42:34;2.70;1.00
463;DHT22;218;51.902;9.542;2023-02-28T05:45:01;2.60;1.00
463;DHT22;218;51.902;9.542;2023-02-28T05:47:28;3.60;1.00
463;DHT22;218;51.902;9.542;2023-02-28T05:49:56;3.70;1.00
463;DHT22;218;51.902;9.542;2023-02-28T05:52:23;2.50;1.00
463;DHT22;218;51.902;9.542;2023-02-28T05:54:50;2.50;1.00
463;DHT22;218;51.902;9.542;2023-02-28T05:57:17;2.80;1.00
463;DHT22;218;51.902;9.542;2023-02-28T05:59:43;2.40;1.00
463;DHT22;218;51.902;9.542;2023-02-28T06:02:12;2.30;1.00
463;DHT22;218;51.902;9.542;2023-02-28T06:04:40;2.30;1.00
463;DHT22;218;51.902;9.542;2023-02-28T06:07:09;2.20;1.00
463;DHT22;218;51.902;9.542;2023-02-28T06:09:36;2.20;1.00
463;DHT22;218;51.902;9.542;2023-02-28T06:12:04;4.40;1.00
463;DHT22;218;51.902;9.542;2023-02-28T06:14:33;2.10;1.00
463;DHT22;218;51.902;9.542;2023-02-28T06:17:02;2.10;1.00
463;DHT22;218;51.902;9.542;2023-02-28T06:19:29;2.10;1.00
463;DHT22;218;51.902;9.542;2023-02-28T06:21:57;2.00;1.00
463;DHT22;218;51.902;9.542;2023-02-28T06:24:27;2.00;1.00
463;DHT22;218;51.902;9.542;2023-02-28T06:26:54;2.00;1.00
463;DHT22;218;51.902;9.542;2023-02-28T06:29:21;1.90;1.00
463;DHT22;218;51.902;9.542;2023-02-28T06:31:48;2.20;1.00
463;DHT22;218;51.902;9.542;2023-02-28T06:34:16;1.90;1.00
463;DHT22;218;51.902;9.542;2023-02-28T06:36:43;3.60;1.00
463;DHT22;218;51.902;9.542;2023-02-28T06:39:10;1.80;1.00
463;DHT22;218;51.902;9.542;2023-02-28T06:41:38;1.80;1.00
463;DHT22;218;51.902;9.542;2023-02-28T06:44:08;1.80;1.00
463;DHT22;218;51.902;9.542;2023-02-28T06:46:40;1.80;1.00
463;DHT22;218;51.902;9.542;2023-02-28T06:49:07;3.10;1.00
463;DHT22;218;51.902;9.542;2023-02-28T06:51:36;1.90;1.00
463;DHT22;218;51.902;9.542;2023-02-28T06:54:04;1.70;1.00
463;DHT22;218;51.902;9.542;2023-02-28T06:56:31;1.70;1.00
463;DHT22;218;51.902;9.542;2023-02-28T06:59:00;1.70;1.00
463;DHT22;218;51.902;9.542;2023-02-28T07:01:27;1.80;1.00
463;DHT22;218;51.902;9.542;2023-02-28T07:03:54;2.70;1.00
463;DHT22;218;51.902;9.542;2023-02-28T07:06:22;1.80;1.00
463;DHT22;218;51.902;9.542;2023-02-28T07:08:49;1.80;1.00
463;DHT22;218;51.902;9.542;2023-02-28T07:11:17;1.90;1.00
463;DHT22;218;51.902;9.542;2023-02-28T07:13:44;1.90;1.00
463;DHT22;218;51.902;9.542;2023-02-28T07:16:14;3.40;1.00
463;DHT22;218;51.902;9.542;2023-02-28T07:18:41;2.00;1.00
463;DHT22;218;51.902;9.542;2023-02-28T07:21:10;2.80;1.00
463;DHT22;218;51.902;9.542;2023-02-28T07:23:38;2.20;1.00
463;DHT22;218;51.902;9.542;2023-02-28T07:26:05;2.20;1.00
463;DHT22;218;51.902;9.542;2023-02-28T07:28:32;2.40;1.00
463;DHT22;218;51.902;9.542;2023-02-28T07:31:03;2.30;1.00
463;DHT22;218;51.902;9.542;2023-02-28T07:33:32;2.40;1.00
463;DHT22;218;51.902;9.542;2023-02-28T07:36:01;2.60;1.00
463;DHT22;218;51.902;9.542;2023-02-28T07:38:27;4.00;1.00
463;DHT22;218;51.902;9.542;2023-02-28T07:40:54;3.10;1.00
463;DHT22;218;51.902;9.542;2023-02-28T07:43:21;2.70;1.00
463;DHT22;218;51.902;9.542;2023-02-28T07:45:48;2.70;1.00
463;DHT22;218;51.902;9.542;2023-02-28T07:48:15;2.80;1.00
463;DHT22;218;51.902;9.542;2023-02-28T07:50:44;2.90;1.00
463;DHT22;218;51.902;9.542;2023-02-28T07:53:13;2.90;1.00
463;DHT22;218;51.902;9.542;2023-02-28T07:55:40;3.00;1.00
463;DHT22;218;51.902;9.542;2023-02-28T07:58:07;3.00;1.00
463;DHT22;218;51.902;9.542;2023-02-28T08:00:34;3.10;1.00
463;DHT22;218;51.902;9.542;2023-02-28T08:03:01;3.10;1.00
463;DHT22;218;51.902;9.542;2023-02-28T08:05:27;3.20;1.00
463;DHT22;218;51.902;9.542;2023-02-28T08:07:56;3.20;1.00
463;DHT22;218;51.902;9.542;2023-02-28T08:10:23;3.30;1.00
463;DHT22;218;51.902;9.542;2023-02-28T08:12:50;3.40;1.00
463;DHT22;218;51.902;9.542;2023-02-28T08:15:17;3.40;1.00
463;DHT22;218;51.902;9.542;2023-02-28T08:17:44;3.50;1.00
463;DHT22;218;51.902;9.542;2023-02-28T08:20:11;3.60;1.00
463;DHT22;218;51.902;9.542;2023-02-28T08:22:38;3.60;1.00
463;DHT22;218;51.902;9.542;2023-02-28T08:25:08;3.80;1.00
463;DHT22;218;51.902;9.542;2023-02-28T08:27:36;3.70;1.00
463;DHT22;218;51.902;9.542;2023-02-28T08:30:03;4.10;1.00
463;DHT22;218;51.902;9.542;2023-02-28T08:32:32;3.80;1.00
463;DHT22;218;51.902;9.542;2023-02-28T08:34:59;3.90;1.00
463;DHT22;218;51.902;9.542;2023-02-28T08:37:27;3.90;1.00
463;DHT22;218;51.902;9.542;2023-02-28T08:39:54;4.00;1.00
463;DHT22;218;51.902;9.542;2023-02-28T08:42:22;4.10;1.00
463;DHT22;218;51.902;9.542;2023-02-28T08:44:49;4.10;1.00
463;DHT22;218;51.902;9.542;2023-02-28T08:47:16;5.50;1.00
463;DHT22;218;51.902;9.542;2023-02-28T08:49:43;4.20;1.00
463;DHT22;218;51.902;9.542;2023-02-28T08:52:10;4.30;1.00
463;DHT22;218;51.902;9.542;2023-02-28T08:54:37;4.30;1.00
463;DHT22;218;51.902;9.542;2023-02-28T08:57:04;5.10;1.00
463;DHT22;218;51.902;9.542;2023-02-28T08:59:32;4.50;1.00
463;DHT22;218;51.902;9.542;2023-02-28T09:01:59;4.50;1.00
463;DHT22;218;51.902;9.542;2023-02-28T09:04:26;5.20;1.00
463;DHT22;218;51.902;9.542;2023-02-28T09:06:56;4.70;1.00
463;DHT22;218;51.902;9.542;2023-02-28T09:09:23;5.30;1.00
463;DHT22;218;51.902;9.542;2023-02-28T09:11:49;4.90;1.00
463;DHT22;218;51.902;9.542;2023-02-28T09:14:16;4.90;1.00
463;DHT22;218;51.902;9.542;2023-02-28T09:16:45;5.00;1.00
463;DHT22;218;51.902;9.542;2023-02-28T09:19:12;5.60;1.00
463;DHT22;218;51.902;9.542;2023-02-28T09:21:39;5.50;1.00
463;DHT22;218;51.902;9.542;2023-02-28T09:24:06;5.80;1.00
463;DHT22;218;51.902;9.542;2023-02-28T09:26:33;5.40;1.00
463;DHT22;218;51.902;9.542;2023-02-28T09:29:00;5.70;1.00
463;DHT22;218;51.902;9.542;2023-02-28T09:31:28;5.60;1.00
463;DHT22;218;51.902;9.542;2023-02-28T09:33:57;5.70;1.00
463;DHT22;218;51.902;9.542;2023-02-28T09:36:26;5.70;1.00
463;DHT22;218;51.902;9.542;2023-02-28T09:38:53;6.00;1.00
463;DHT22;218;51.902;9.542;2023-02-28T09:41:22;5.90;1.00
463;DHT22;218;51.902;9.542;2023-02-28T09:43:53;7.50;1.00
463;DHT22;218;51.902;9.542;2023-02-28T09:46:28;6.10;1.00
463;DHT22;218;51.902;9.542;2023-02-28T09:49:00;6.10;1.00
463;DHT22;218;51.902;9.542;2023-02-28T09:51:38;8.20;1.00
463;DHT22;218;51.902;9.542;2023-02-28T09:56:39;6.40;1.00
463;DHT22;218;51.902;9.542;2023-02-28T09:59:15;6.50;1.00
463;DHT22;218;51.902;9.542;2023-02-28T10:01:52;6.50;1.00
463;DHT22;218;51.902;9.542;2023-02-28T10:04:37;6.50;1.00
463;DHT22;218;51.902;9.542;2023-02-28T10:07:17;6.70;1.00
463;DHT22;218;51.902;9.542;2023-02-28T10:09:47;6.80;1.00
463;DHT22;218;51.902;9.542;2023-02-28T10:12:20;6.80;1.00
463;DHT22;218;51.902;9.542;2023-02-28T10:14:49;6.80;1.00
463;DHT22;218;51.902;9.542;2023-02-28T10:17:20;6.80;1.00
463;DHT22;218;51.902;9.542;2023-02-28T10:19:56;7.10;1.00
463;DHT22;218;51.902;9.542;2023-02-28T10:22:28;7.20;1.00
463;DHT22;218;51.902;9.542;2023-02-28T10:24:58;7.20;1.00
463;DHT22;218;51.902;9.542;2023-02-28T10:27:30;7.40;1.00
463;DHT22;218;51.902;9.542;2023-02-28T10:29:59;7.40;1.00
463;DHT22;218;51.902;9.542;2023-02-28T10:32:28;7.60;1.00
463;DHT22;218;51.902;9.542;2023-02-28T10:35:00;7.80;1.00
463;DHT22;218;51.902;9.542;2023-02-28T10:37:28;7.90;1.00
463;DHT22;218;51.902;9.542;2023-02-28T10:39:55;7.80;1.00
463;DHT22;218;51.902;9.542;2023-02-28T10:42:23;8.10;1.00
463;DHT22;218;51.902;9.542;2023-02-28T10:45:07;8.20;1.00
463;DHT22;218;51.902;9.542;2023-02-28T10:47:48;8.20;1.00
463;DHT22;218;51.902;9.542;2023-02-28T10:50:35;8.30;1.00
463;DHT22;218;51.902;9.542;2023-02-28T10:55:45;8.40;1.00
463;DHT22;218;51.902;9.542;2023-02-28T11:00:51;8.50;1.00
463;DHT22;218;51.902;9.542;2023-02-28T11:05:52;8.60;1.00
463;DHT22;218;51.902;9.542;2023-02-28T11:10:48;8.40;1.00
463;DHT22;218;51.902;9.542;2023-02-28T11:13:17;8.30;1.00
463;DHT22;218;51.902;9.542;2023-02-28T11:15:51;8.30;1.00
463;DHT22;218;51.902;9.542;2023-02-28T11:18:23;8.40;1.00
463;DHT22;218;51.902;9.542;2023-02-28T11:20:54;8.40;1.00
463;DHT22;218;51.902;9.542;2023-02-28T11:23:24;8.30;1.00
463;DHT22;218;51.902;9.542;2023-02-28T11:28:27;8.30;1.00
463;DHT22;218;51.902;9.542;2023-02-28T11:33:30;8.30;1.00
463;DHT22;218;51.902;9.542;2023-02-28T11:38:28;8.20;1.00
463;DHT22;218;51.902;9.542;2023-02-28T11:41:08;8.10;1.00
463;DHT22;218;51.902;9.542;2023-02-28T11:43:48;8.10;1.00
463;DHT22;218;51.902;9.542;2023-02-28T11:46:25;8.30;1.00
463;DHT22;218;51.902;9.542;2023-02-28T11:49:03;8.20;1.00
463;DHT22;218;51.902;9.542;2023-02-28T11:51:35;8.00;1.00
463;DHT22;218;51.902;9.542;2023-02-28T11:54:32;8.00;1.00
463;DHT22;218;51.902;9.542;2023-02-28T12:02:23;8.10;1.00
463;DHT22;218;51.902;9.542;2023-02-28T12:04:58;8.20;1.00
463;DHT22;218;51.902;9.542;2023-02-28T12:07:34;8.40;1.00
463;DHT22;218;51.902;9.542;2023-02-28T12:10:12;8.50;1.00
463;DHT22;218;51.902;9.542;2023-02-28T12:12:47;8.60;1.00
463;DHT22;218;51.902;9.542;2023-02-28T12:15:43;8.60;1.00
463;DHT22;218;51.902;9.542;2023-02-28T12:20:49;8.80;1.00
463;DHT22;218;51.902;9.542;2023-02-28T12:26:10;9.10;1.00
463;DHT22;218;51.902;9.542;2023-02-28T12:33:42;9.30;1.00
463;DHT22;218;51.902;9.542;2023-02-28T12:46:12;10.00;1.00
463;DHT22;218;51.902;9.542;2023-02-28T12:56:16;10.30;1.00
463;DHT22;218;51.902;9.542;2023-02-28T13:01:39;10.60;1.00
463;DHT22;218;51.902;9.542;2023-02-28T13:04:29;10.60;1.00
463;DHT22;218;51.902;9.542;2023-02-28T13:14:29;11.00;1.00
463;DHT22;218;51.902;9.542;2023-02-28T13:19:27;11.10;1.00
463;DHT22;218;51.902;9.542;2023-02-28T13:24:54;11.10;1.00
463;DHT22;218;51.902;9.542;2023-02-28T13:27:31;10.70;1.00
463;DHT22;218;51.902;9.542;2023-02-28T13:56:51;11.70;1.00
463;DHT22;218;51.902;9.542;2023-02-28T14:02:03;11.30;1.00
463;DHT22;218;51.902;9.542;2023-02-28T14:04:51;10.90;1.00
463;DHT22;218;51.902;9.542;2023-02-28T14:07:24;10.50;1.00
463;DHT22;218;51.902;9.542;2023-02-28T14:15:30;10.30;1.00
463;DHT22;218;51.902;9.542;2023-02-28T14:23:04;10.60;1.00
463;DHT22;218;51.902;9.542;2023-02-28T14:33:26;10.60;1.00
463;DHT22;218;51.902;9.542;2023-02-28T14:53:27;10.30;1.00
463;DHT22;218;51.902;9.542;2023-02-28T14:58:25;10.00;1.00
463;DHT22;218;51.902;9.542;2023-02-28T15:00:54;10.10;1.00
463;DHT22;218;51.902;9.542;2023-02-28T15:18:33;9.80;1.00
463;DHT22;218;51.902;9.542;2023-02-28T15:21:05;9.90;1.00
463;DHT22;218;51.902;9.542;2023-02-28T15:23:35;9.70;1.00
463;DHT22;218;51.902;9.542;2023-02-28T15:26:03;9.50;1.00
463;DHT22;218;51.902;9.542;2023-02-28T15:30:59;9.50;1.00
463;DHT22;218;51.902;9.542;2023-02-28T15:33:29;9.50;1.00
463;DHT22;218;51.902;9.542;2023-02-28T15:43:35;9.30;1.00
463;DHT22;218;51.902;9.542;2023-02-28T15:46:04;9.40;1.00
463;DHT22;218;51.902;9.542;2023-02-28T15:48:35;9.30;1.00
463;DHT22;218;51.902;9.542;2023-02-28T16:11:43;7.70;1.00
463;DHT22;218;51.902;9.542;2023-02-28T16:16:45;7.60;1.00
463;DHT22;218;51.902;9.542;2023-02-28T16:21:39;7.40;1.00
463;DHT22;218;51.902;9.542;2023-02-28T16:24:08;7.30;1.00
463;DHT22;218;51.902;9.542;2023-02-28T16:26:35;7.10;1.00
463;DHT22;218;51.902;9.542;2023-02-28T16:31:34;7.00;1.00
463;DHT22;218;51.902;9.542;2023-02-28T16:34:02;6.80;1.00
463;DHT22;218;51.902;9.542;2023-02-28T16:36:29;6.70;1.00
463;DHT22;218;51.902;9.542;2023-02-28T16:38:56;6.70;1.00
463;DHT22;218;51.902;9.542;2023-02-28T16:41:27;6.60;1.00
463;DHT22;218;51.902;9.542;2023-02-28T16:43:56;6.90;1.00
463;DHT22;218;51.902;9.542;2023-02-28T16:46:28;6.50;1.00
463;DHT22;218;51.902;9.542;2023-02-28T16:48:56;6.40;1.00
463;DHT22;218;51.902;9.542;2023-02-28T16:51:23;7.30;1.00
463;DHT22;218;51.902;9.542;2023-02-28T16:53:50;6.60;1.00
463;DHT22;218;51.902;9.542;2023-02-28T16:56:18;6.20;1.00
463;DHT22;218;51.902;9.542;2023-02-28T16:58:48;6.90;1.00
463;DHT22;218;51.902;9.542;2023-02-28T17:01:15;6.50;1.00
463;DHT22;218;51.902;9.542;2023-02-28T17:03:42;5.90;1.00
463;DHT22;218;51.902;9.542;2023-02-28T17:06:17;5.80;1.00
463;DHT22;218;51.902;9.542;2023-02-28T17:08:45;7.50;1.00
463;DHT22;218;51.902;9.542;2023-02-28T17:11:12;6.10;1.00
463;DHT22;218;51.902;9.542;2023-02-28T17:13:38;5.60;1.00
463;DHT22;218;51.902;9.542;2023-02-28T17:16:12;5.50;1.00
463;DHT22;218;51.902;9.542;2023-02-28T17:18:40;5.80;1.00
463;DHT22;218;51.902;9.542;2023-02-28T17:21:13;5.50;1.00
463;DHT22;218;51.902;9.542;2023-02-28T17:23:40;5.20;1.00
463;DHT22;218;51.902;9.542;2023-02-28T17:26:11;6.00;1.00
463;DHT22;218;51.902;9.542;2023-02-28T17:28:38;5.00;1.00
463;DHT22;218;51.902;9.542;2023-02-28T17:31:07;7.30;1.00
463;DHT22;218;51.902;9.542;2023-02-28T17:33:34;5.20;1.00
463;DHT22;218;51.902;9.542;2023-02-28T17:36:01;4.80;1.00
463;DHT22;218;51.902;9.542;2023-02-28T17:38:28;5.20;1.00
463;DHT22;218;51.902;9.542;2023-02-28T17:40:55;4.70;1.00
463;DHT22;218;51.902;9.542;2023-02-28T17:43:23;5.80;1.00
463;DHT22;218;51.902;9.542;2023-02-28T17:45:50;4.60;1.00
463;DHT22;218;51.902;9.542;2023-02-28T17:48:19;4.60;1.00
463;DHT22;218;51.902;9.542;2023-02-28T17:50:46;4.50;1.00
463;DHT22;218;51.902;9.542;2023-02-28T17:53:12;5.30;1.00
463;DHT22;218;51.902;9.542;2023-02-28T17:55:39;4.40;1.00
463;DHT22;218;51.902;9.542;2023-02-28T17:58:09;4.40;1.00
463;DHT22;218;51.902;9.542;2023-02-28T18:00:37;5.20;1.00
463;DHT22;218;51.902;9.542;2023-02-28T18:03:04;6.20;1.00
463;DHT22;218;51.902;9.542;2023-02-28T18:05:32;4.40;1.00
463;DHT22;218;51.902;9.542;2023-02-28T18:08:01;4.30;1.00
463;DHT22;218;51.902;9.542;2023-02-28T18:10:27;4.40;1.00
463;DHT22;218;51.902;9.542;2023-02-28T18:12:59;4.30;1.00
463;DHT22;218;51.902;9.542;2023-02-28T18:15:26;6.00;1.00
463;DHT22;218;51.902;9.542;2023-02-28T18:17:53;4.20;1.00
463;DHT22;218;51.902;9.542;2023-02-28T18:20:20;4.20;1.00
463;DHT22;218;51.902;9.542;2023-02-28T18:22:48;5.20;1.00
463;DHT22;218;51.902;9.542;2023-02-28T18:25:15;4.00;1.00
463;DHT22;218;51.902;9.542;2023-02-28T18:27:42;4.50;1.00
463;DHT22;218;51.902;9.542;2023-02-28T18:30:19;4.10;1.00
463;DHT22;218;51.902;9.542;2023-02-28T18:32:46;3.90;1.00
463;DHT22;218;51.902;9.542;2023-02-28T18:35:13;3.80;1.00
463;DHT22;218;51.902;9.542;2023-02-28T18:37:40;3.90;1.00
463;DHT22;218;51.902;9.542;2023-02-28T18:40:09;3.70;1.00
463;DHT22;218;51.902;9.542;2023-02-28T18:42:36;3.70;1.00
463;DHT22;218;51.902;9.542;2023-02-28T18:45:04;5.70;1.00
463;DHT22;218;51.902;9.542;2023-02-28T18:47:33;3.60;1.00
463;DHT22;218;51.902;9.542;2023-02-28T18:50:00;3.60;1.00
463;DHT22;218;51.902;9.542;2023-02-28T18:52:27;3.70;1.00
463;DHT22;218;51.902;9.542;2023-02-28T18:54:53;3.90;1.00
463;DHT22;218;51.902;9.542;2023-02-28T18:57:22;4.30;1.00
463;DHT22;218;51.902;9.542;2023-02-28T18:59:49;4.30;1.00
463;DHT22;218;51.902;9.542;2023-02-28T19:02:16;5.10;1.00
463;DHT22;218;51.902;9.542;2023-02-28T19:04:43;4.50;1.00
463;DHT22;218;51.902;9.542;2023-02-28T19:07:09;4.50;1.00
463;DHT22;218;51.902;9.542;2023-02-28T19:09:36;4.50;1.00
463;DHT22;218;51.902;9.542;2023-02-28T19:12:03;4.60;1.00
463;DHT22;218;51.902;9.542;2023-02-28T19:14:32;4.60;1.00
463;DHT22;218;51.902;9.542;2023-02-28T19:16:59;4.50;1.00
463;DHT22;218;51.902;9.542;2023-02-28T19:19:26;4.50;1.00
463;DHT22;218;51.902;9.542;2023-02-28T19:21:53;4.50;1.00
463;DHT22;218;51.902;9.542;2023-02-28T19:24:20;4.60;1.00
463;DHT22;218;51.902;9.542;2023-02-28T19:26:47;5.50;1.00
463;DHT22;218;51.902;9.542;2023-02-28T19:29:14;4.40;1.00
463;DHT22;218;51.902;9.542;2023-02-28T19:31:42;4.40;1.00
463;DHT22;218;51.902;9.542;2023-02-28T19:34:09;4.30;1.00
463;DHT22;218;51.902;9.542;2023-02-28T19:36:36;4.20;1.00
463;DHT22;218;51.902;9.542;2023-02-28T19:39:04;4.60;1.00
463;DHT22;218;51.902;9.542;2023-02-28T19:41:31;4.10;1.00
463;DHT22;218;51.902;9.542;2023-02-28T19:43:58;4.10;1.00
463;DHT22;218;51.902;9.542;2023-02-28T19:46:25;4.50;1.00
463;DHT22;218;51.902;9.542;2023-02-28T19:48:54;4.00;1.00
463;DHT22;218;51.902;9.542;2023-02-28T19:51:21;5.00;1.00
463;DHT22;218;51.902;9.542;2023-02-28T19:53:48;4.00;1.00
463;DHT22;218;51.902;9.542;2023-02-28T19:56:15;3.90;1.00
463;DHT22;218;51.902;9.542;2023-02-28T19:58:42;3.80;1.00
463;DHT22;218;51.902;9.542;2023-02-28T20:01:10;4.20;1.00
463;DHT22;218;51.902;9.542;2023-02-28T20:24:10;3.40;1.00
463;DHT22;218;51.902;9.542;2023-02-28T20:26:37;4.10;1.00
463;DHT22;218;51.902;9.542;2023-02-28T20:29:05;3.10;1.00
463;DHT22;218;51.902;9.542;2023-02-28T20:31:33;3.80;1.00
463;DHT22;218;51.902;9.542;2023-02-28T20:34:02;3.10;1.00
463;DHT22;218;51.902;9.542;2023-02-28T20:36:29;4.10;1.00
463;DHT22;218;51.902;9.542;2023-02-28T20:38:56;3.60;1.00
463;DHT22;218;51.902;9.542;2023-02-28T20:41:24;3.80;1.00
463;DHT22;218;51.902;9.542;2023-02-28T20:43:55;3.70;1.00
463;DHT22;218;51.902;9.542;2023-02-28T20:46:23;3.00;1.00
463;DHT22;218;51.902;9.542;2023-02-28T20:48:50;3.00;1.00
463;DHT22;218;51.902;9.542;2023-02-28T20:51:18;3.00;1.00
463;DHT22;218;51.902;9.542;2023-02-28T20:53:45;2.90;1.00
463;DHT22;218;51.902;9.542;2023-02-28T20:56:14;2.90;1.00